sensor_id;sensor_type;location;lat;lon;timestamp;P1;durP1;ratioP1;P2;durP2;ratioP2
2522;SDS011;1272;53.332;9.860;2022-08-01T00:01:24;20.80;;;18.70;;
2522;SDS011;1272;53.332;9.860;2022-08-01T00:03:49;13.60;;;12.50;;
2522;SDS011;1272;53.332;9.860;2022-08-01T00:06:15;20.10;;;18.30;;
2522;SDS011;1272;53.332;9.860;2022-08-01T00:08:41;19.53;;;17.70;;
2522;SDS011;1272;53.332;9.860;2022-08-01T00:11:06;20.90;;;19.00;;
2522;SDS011;1272;53.332;9.860;2022-08-01T00:13:34;16.73;;;15.33;;
2522;SDS011;1272;53.332;9.860;2022-08-01T00:16:00;19.30;;;17.67;;
2522;SDS011;1272;53.332;9.860;2022-08-01T00:18:26;18.73;;;17.13;;
2522;SDS011;1272;53.332;9.860;2022-08-01T00:20:52;18.07;;;16.33;;
2522;SDS011;1272;53.332;9.860;2022-08-01T00:23:17;20.37;;;18.47;;
2522;SDS011;1272;53.332;9.860;2022-08-01T00:25:43;17.57;;;16.07;;
2522;SDS011;1272;53.332;9.860;2022-08-01T00:28:09;17.10;;;15.50;;
2522;SDS011;1272;53.332;9.860;2022-08-01T00:30:35;16.67;;;14.90;;
2522;SDS011;1272;53.332;9.860;2022-08-01T00:33:01;19.00;;;17.30;;
2522;SDS011;1272;53.332;9.860;2022-08-01T00:35:27;14.00;;;12.80;;
2522;SDS011;1272;53.332;9.860;2022-08-01T00:37:53;18.20;;;16.50;;
2522;SDS011;1272;53.332;9.860;2022-08-01T00:40:18;19.67;;;17.77;;
2522;SDS011;1272;53.332;9.860;2022-08-01T00:42:44;18.20;;;16.40;;
2522;SDS011;1272;53.332;9.860;2022-08-01T00:45:10;18.57;;;16.67;;
2522;SDS011;1272;53.332;9.860;2022-08-01T00:47:36;15.03;;;13.50;;
2522;SDS011;1272;53.332;9.860;2022-08-01T00:50:05;17.10;;;15.60;;
2522;SDS011;1272;53.332;9.860;2022-08-01T00:52:32;14.57;;;13.20;;
2522;SDS011;1272;53.332;9.860;2022-08-01T00:54:58;15.43;;;14.03;;
2522;SDS011;1272;53.332;9.860;2022-08-01T00:57:24;18.27;;;16.57;;
2522;SDS011;1272;53.332;9.860;2022-08-01T00:59:50;18.30;;;16.50;;
2522;SDS011;1272;53.332;9.860;2022-08-01T01:02:17;18.23;;;16.40;;
2522;SDS011;1272;53.332;9.860;2022-08-01T01:04:43;16.97;;;15.50;;
2522;SDS011;1272;53.332;9.860;2022-08-01T01:07:24;14.83;;;13.60;;
2522;SDS011;1272;53.332;9.860;2022-08-01T01:18:13;14.97;;;13.53;;
2522;SDS011;1272;53.332;9.860;2022-08-01T01:20:46;15.33;;;13.87;;
2522;SDS011;1272;53.332;9.860;2022-08-01T01:26:29;16.40;;;14.80;;
2522;SDS011;1272;53.332;9.860;2022-08-01T01:32:02;13.23;;;12.13;;
2522;SDS011;1272;53.332;9.860;2022-08-01T01:34:32;13.43;;;12.20;;
2522;SDS011;1272;53.332;9.860;2022-08-01T01:37:02;14.50;;;13.10;;
2522;SDS011;1272;53.332;9.860;2022-08-01T01:39:31;11.73;;;10.73;;
2522;SDS011;1272;53.332;9.860;2022-08-01T01:41:58;14.90;;;13.40;;
2522;SDS011;1272;53.332;9.860;2022-08-01T01:44:26;16.33;;;14.40;;
2522;SDS011;1272;53.332;9.860;2022-08-01T01:46:53;14.43;;;12.20;;
2522;SDS011;1272;53.332;9.860;2022-08-01T01:49:21;12.20;;;11.00;;
2522;SDS011;1272;53.332;9.860;2022-08-01T01:51:51;13.53;;;12.13;;
2522;SDS011;1272;53.332;9.860;2022-08-01T01:54:19;13.67;;;12.23;;
2522;SDS011;1272;53.332;9.860;2022-08-01T01:56:47;17.17;;;12.90;;
2522;SDS011;1272;53.332;9.860;2022-08-01T01:59:19;11.83;;;10.67;;
2522;SDS011;1272;53.332;9.860;2022-08-01T02:01:46;12.83;;;11.53;;
2522;SDS011;1272;53.332;9.860;2022-08-01T02:04:14;13.97;;;12.67;;
2522;SDS011;1272;53.332;9.860;2022-08-01T02:06:41;13.70;;;12.30;;
2522;SDS011;1272;53.332;9.860;2022-08-01T02:09:10;12.63;;;11.37;;
2522;SDS011;1272;53.332;9.860;2022-08-01T02:11:36;14.23;;;12.73;;
2522;SDS011;1272;53.332;9.860;2022-08-01T02:14:04;11.77;;;10.57;;
2522;SDS011;1272;53.332;9.860;2022-08-01T02:16:36;11.37;;;10.27;;
2522;SDS011;1272;53.332;9.860;2022-08-01T02:19:04;12.13;;;10.90;;
2522;SDS011;1272;53.332;9.860;2022-08-01T02:21:32;11.70;;;10.63;;
2522;SDS011;1272;53.332;9.860;2022-08-01T02:24:07;10.90;;;9.50;;
2522;SDS011;1272;53.332;9.860;2022-08-01T02:26:41;11.03;;;9.93;;
2522;SDS011;1272;53.332;9.860;2022-08-01T02:29:12;11.53;;;10.40;;
2522;SDS011;1272;53.332;9.860;2022-08-01T02:31:46;12.70;;;9.50;;
2522;SDS011;1272;53.332;9.860;2022-08-01T02:34:15;9.60;;;8.77;;
2522;SDS011;1272;53.332;9.860;2022-08-01T02:36:43;12.97;;;11.67;;
2522;SDS011;1272;53.332;9.860;2022-08-01T02:39:12;12.67;;;11.03;;
2522;SDS011;1272;53.332;9.860;2022-08-01T02:41:45;11.50;;;10.27;;
2522;SDS011;1272;53.332;9.860;2022-08-01T02:44:15;10.40;;;9.50;;
2522;SDS011;1272;53.332;9.860;2022-08-01T02:46:56;9.40;;;8.60;;
2522;SDS011;1272;53.332;9.860;2022-08-01T02:49:27;12.83;;;10.87;;
2522;SDS011;1272;53.332;9.860;2022-08-01T02:51:57;9.33;;;8.40;;
2522;SDS011;1272;53.332;9.860;2022-08-01T02:54:26;13.27;;;11.97;;
2522;SDS011;1272;53.332;9.860;2022-08-01T02:56:54;9.70;;;8.77;;
2522;SDS011;1272;53.332;9.860;2022-08-01T02:59:22;10.20;;;9.13;;
2522;SDS011;1272;53.332;9.860;2022-08-01T03:01:51;10.93;;;9.13;;
2522;SDS011;1272;53.332;9.860;2022-08-01T03:04:20;9.80;;;8.80;;
2522;SDS011;1272;53.332;9.860;2022-08-01T03:06:47;11.03;;;9.70;;
2522;SDS011;1272;53.332;9.860;2022-08-01T03:09:14;9.90;;;9.00;;
2522;SDS011;1272;53.332;9.860;2022-08-01T03:11:41;10.73;;;9.10;;
2522;SDS011;1272;53.332;9.860;2022-08-01T03:14:09;8.83;;;8.03;;
2522;SDS011;1272;53.332;9.860;2022-08-01T03:16:37;9.07;;;8.13;;
2522;SDS011;1272;53.332;9.860;2022-08-01T03:19:04;9.03;;;8.10;;
2522;SDS011;1272;53.332;9.860;2022-08-01T03:21:33;8.43;;;7.73;;
2522;SDS011;1272;53.332;9.860;2022-08-01T03:24:01;10.23;;;8.20;;
2522;SDS011;1272;53.332;9.860;2022-08-01T03:26:28;7.17;;;6.47;;
2522;SDS011;1272;53.332;9.860;2022-08-01T03:28:56;7.10;;;6.43;;
2522;SDS011;1272;53.332;9.860;2022-08-01T03:31:31;7.70;;;7.00;;
2522;SDS011;1272;53.332;9.860;2022-08-01T03:34:00;7.10;;;5.93;;
2522;SDS011;1272;53.332;9.860;2022-08-01T03:36:26;8.53;;;7.00;;
2522;SDS011;1272;53.332;9.860;2022-08-01T03:38:56;5.30;;;4.80;;
2522;SDS011;1272;53.332;9.860;2022-08-01T03:41:26;7.90;;;7.30;;
2522;SDS011;1272;53.332;9.860;2022-08-01T03:43:57;9.23;;;7.27;;
2522;SDS011;1272;53.332;9.860;2022-08-01T03:46:29;8.13;;;7.53;;
2522;SDS011;1272;53.332;9.860;2022-08-01T03:49:00;7.13;;;6.50;;
2522;SDS011;1272;53.332;9.860;2022-08-01T03:51:34;6.23;;;5.63;;
2522;SDS011;1272;53.332;9.860;2022-08-01T03:54:02;9.70;;;6.60;;
2522;SDS011;1272;53.332;9.860;2022-08-01T03:56:29;6.50;;;6.00;;
2522;SDS011;1272;53.332;9.860;2022-08-01T03:58:57;7.87;;;7.17;;
2522;SDS011;1272;53.332;9.860;2022-08-01T04:01:24;8.20;;;6.13;;
2522;SDS011;1272;53.332;9.860;2022-08-01T04:03:51;6.47;;;5.80;;
2522;SDS011;1272;53.332;9.860;2022-08-01T04:06:18;5.93;;;5.33;;
2522;SDS011;1272;53.332;9.860;2022-08-01T04:08:44;7.00;;;5.87;;
2522;SDS011;1272;53.332;9.860;2022-08-01T04:11:20;6.80;;;6.23;;
2522;SDS011;1272;53.332;9.860;2022-08-01T04:13:46;4.70;;;4.40;;
2522;SDS011;1272;53.332;9.860;2022-08-01T04:16:13;4.93;;;4.50;;
2522;SDS011;1272;53.332;9.860;2022-08-01T04:18:39;5.63;;;5.20;;
2522;SDS011;1272;53.332;9.860;2022-08-01T04:21:04;4.60;;;4.30;;
2522;SDS011;1272;53.332;9.860;2022-08-01T04:23:30;8.27;;;5.37;;
2522;SDS011;1272;53.332;9.860;2022-08-01T04:25:59;4.83;;;4.53;;
2522;SDS011;1272;53.332;9.860;2022-08-01T04:28:30;4.33;;;4.03;;
2522;SDS011;1272;53.332;9.860;2022-08-01T04:30:59;5.27;;;4.77;;
2522;SDS011;1272;53.332;9.860;2022-08-01T04:33:25;4.73;;;4.37;;
2522;SDS011;1272;53.332;9.860;2022-08-01T04:35:54;5.07;;;4.77;;
2522;SDS011;1272;53.332;9.860;2022-08-01T04:38:24;5.83;;;5.20;;
2522;SDS011;1272;53.332;9.860;2022-08-01T04:40:52;4.77;;;4.47;;
2522;SDS011;1272;53.332;9.860;2022-08-01T04:43:21;5.60;;;5.10;;
2522;SDS011;1272;53.332;9.860;2022-08-01T04:45:47;4.67;;;4.37;;
2522;SDS011;1272;53.332;9.860;2022-08-01T04:48:16;5.00;;;4.60;;
2522;SDS011;1272;53.332;9.860;2022-08-01T04:50:44;3.70;;;3.40;;
2522;SDS011;1272;53.332;9.860;2022-08-01T04:53:16;5.10;;;4.70;;
2522;SDS011;1272;53.332;9.860;2022-08-01T04:55:44;5.00;;;3.93;;
2522;SDS011;1272;53.332;9.860;2022-08-01T04:58:11;4.53;;;3.80;;
2522;SDS011;1272;53.332;9.860;2022-08-01T05:00:38;3.97;;;3.77;;
2522;SDS011;1272;53.332;9.860;2022-08-01T05:03:03;4.10;;;3.80;;
2522;SDS011;1272;53.332;9.860;2022-08-01T05:05:29;4.50;;;4.30;;
2522;SDS011;1272;53.332;9.860;2022-08-01T05:07:55;4.50;;;4.10;;
2522;SDS011;1272;53.332;9.860;2022-08-01T05:10:21;3.53;;;3.33;;
2522;SDS011;1272;53.332;9.860;2022-08-01T05:12:47;4.83;;;3.33;;
2522;SDS011;1272;53.332;9.860;2022-08-01T05:15:12;3.80;;;3.50;;
2522;SDS011;1272;53.332;9.860;2022-08-01T05:17:39;4.67;;;3.60;;
2522;SDS011;1272;53.332;9.860;2022-08-01T05:20:09;4.30;;;3.77;;
2522;SDS011;1272;53.332;9.860;2022-08-01T05:22:36;6.20;;;3.67;;
2522;SDS011;1272;53.332;9.860;2022-08-01T05:25:02;3.30;;;3.10;;
2522;SDS011;1272;53.332;9.860;2022-08-01T05:27:30;5.10;;;3.77;;
2522;SDS011;1272;53.332;9.860;2022-08-01T05:29:56;3.53;;;3.33;;
2522;SDS011;1272;53.332;9.860;2022-08-01T05:32:22;6.40;;;3.50;;
2522;SDS011;1272;53.332;9.860;2022-08-01T05:34:47;3.43;;;3.23;;
2522;SDS011;1272;53.332;9.860;2022-08-01T05:37:13;3.30;;;3.10;;
2522;SDS011;1272;53.332;9.860;2022-08-01T05:39:39;3.63;;;2.60;;
2522;SDS011;1272;53.332;9.860;2022-08-01T05:42:05;4.53;;;2.80;;
2522;SDS011;1272;53.332;9.860;2022-08-01T05:44:31;2.47;;;2.37;;
2522;SDS011;1272;53.332;9.860;2022-08-01T05:46:56;2.60;;;2.40;;
2522;SDS011;1272;53.332;9.860;2022-08-01T05:49:22;2.70;;;2.60;;
2522;SDS011;1272;53.332;9.860;2022-08-01T05:51:48;2.73;;;2.60;;
2522;SDS011;1272;53.332;9.860;2022-08-01T05:54:14;2.67;;;2.47;;
2522;SDS011;1272;53.332;9.860;2022-08-01T05:56:40;4.80;;;2.47;;
2522;SDS011;1272;53.332;9.860;2022-08-01T05:59:05;3.33;;;2.20;;
2522;SDS011;1272;53.332;9.860;2022-08-01T06:01:31;2.00;;;1.90;;
2522;SDS011;1272;53.332;9.860;2022-08-01T06:03:57;2.47;;;2.27;;
2522;SDS011;1272;53.332;9.860;2022-08-01T06:06:23;2.00;;;1.70;;
2522;SDS011;1272;53.332;9.860;2022-08-01T06:08:48;5.57;;;2.57;;
2522;SDS011;1272;53.332;9.860;2022-08-01T06:11:15;2.07;;;1.87;;
2522;SDS011;1272;53.332;9.860;2022-08-01T06:13:40;1.70;;;1.60;;
2522;SDS011;1272;53.332;9.860;2022-08-01T06:16:06;3.53;;;2.10;;
2522;SDS011;1272;53.332;9.860;2022-08-01T06:18:32;1.57;;;1.47;;
2522;SDS011;1272;53.332;9.860;2022-08-01T06:20:57;2.53;;;1.47;;
2522;SDS011;1272;53.332;9.860;2022-08-01T06:23:23;2.40;;;1.93;;
2522;SDS011;1272;53.332;9.860;2022-08-01T06:25:51;2.50;;;1.80;;
2522;SDS011;1272;53.332;9.860;2022-08-01T06:28:19;1.70;;;1.50;;
2522;SDS011;1272;53.332;9.860;2022-08-01T06:30:45;3.57;;;2.00;;
2522;SDS011;1272;53.332;9.860;2022-08-01T06:33:10;7.67;;;2.37;;
2522;SDS011;1272;53.332;9.860;2022-08-01T06:35:36;4.20;;;2.30;;
2522;SDS011;1272;53.332;9.860;2022-08-01T06:38:02;5.07;;;2.00;;
2522;SDS011;1272;53.332;9.860;2022-08-01T06:40:28;3.10;;;1.70;;
2522;SDS011;1272;53.332;9.860;2022-08-01T06:42:53;4.03;;;2.20;;
2522;SDS011;1272;53.332;9.860;2022-08-01T06:45:19;3.27;;;1.77;;
2522;SDS011;1272;53.332;9.860;2022-08-01T06:47:47;3.83;;;2.40;;
2522;SDS011;1272;53.332;9.860;2022-08-01T06:50:13;4.00;;;2.50;;
2522;SDS011;1272;53.332;9.860;2022-08-01T06:52:39;4.47;;;2.17;;
2522;SDS011;1272;53.332;9.860;2022-08-01T06:55:06;2.27;;;1.83;;
2522;SDS011;1272;53.332;9.860;2022-08-01T06:57:32;6.43;;;2.27;;
2522;SDS011;1272;53.332;9.860;2022-08-01T07:00:00;2.73;;;1.93;;
2522;SDS011;1272;53.332;9.860;2022-08-01T07:02:28;3.97;;;2.43;;
2522;SDS011;1272;53.332;9.860;2022-08-01T07:04:53;4.93;;;2.10;;
2522;SDS011;1272;53.332;9.860;2022-08-01T07:07:19;4.00;;;2.60;;
2522;SDS011;1272;53.332;9.860;2022-08-01T07:09:45;6.27;;;2.63;;
2522;SDS011;1272;53.332;9.860;2022-08-01T07:12:10;4.93;;;2.53;;
2522;SDS011;1272;53.332;9.860;2022-08-01T07:14:36;4.43;;;2.40;;
2522;SDS011;1272;53.332;9.860;2022-08-01T07:17:02;2.77;;;2.57;;
2522;SDS011;1272;53.332;9.860;2022-08-01T07:19:27;6.17;;;3.20;;
2522;SDS011;1272;53.332;9.860;2022-08-01T07:21:53;3.47;;;2.70;;
2522;SDS011;1272;53.332;9.860;2022-08-01T07:24:19;4.50;;;3.30;;
2522;SDS011;1272;53.332;9.860;2022-08-01T07:26:45;7.03;;;3.60;;
2522;SDS011;1272;53.332;9.860;2022-08-01T07:29:12;5.87;;;3.60;;
2522;SDS011;1272;53.332;9.860;2022-08-01T07:31:37;5.10;;;2.67;;
2522;SDS011;1272;53.332;9.860;2022-08-01T07:34:03;7.33;;;3.03;;
2522;SDS011;1272;53.332;9.860;2022-08-01T07:36:29;8.50;;;3.93;;
2522;SDS011;1272;53.332;9.860;2022-08-01T07:38:55;5.20;;;4.10;;
2522;SDS011;1272;53.332;9.860;2022-08-01T07:41:20;5.13;;;3.60;;
2522;SDS011;1272;53.332;9.860;2022-08-01T07:43:46;10.37;;;3.77;;
2522;SDS011;1272;53.332;9.860;2022-08-01T07:46:14;5.97;;;3.60;;
2522;SDS011;1272;53.332;9.860;2022-08-01T07:48:40;5.90;;;3.00;;
2522;SDS011;1272;53.332;9.860;2022-08-01T07:51:05;6.37;;;3.50;;
2522;SDS011;1272;53.332;9.860;2022-08-01T07:53:31;11.87;;;3.73;;
2522;SDS011;1272;53.332;9.860;2022-08-01T07:55:57;3.40;;;2.80;;
2522;SDS011;1272;53.332;9.860;2022-08-01T07:58:22;6.90;;;2.60;;
2522;SDS011;1272;53.332;9.860;2022-08-01T08:00:48;7.60;;;2.90;;
2522;SDS011;1272;53.332;9.860;2022-08-01T08:03:14;6.70;;;3.33;;
2522;SDS011;1272;53.332;9.860;2022-08-01T08:05:39;15.60;;;4.10;;
2522;SDS011;1272;53.332;9.860;2022-08-01T08:08:05;10.43;;;3.87;;
2522;SDS011;1272;53.332;9.860;2022-08-01T08:10:32;15.70;;;3.93;;
2522;SDS011;1272;53.332;9.860;2022-08-01T08:12:58;10.47;;;3.60;;
2522;SDS011;1272;53.332;9.860;2022-08-01T08:15:23;11.97;;;4.23;;
2522;SDS011;1272;53.332;9.860;2022-08-01T08:17:49;11.40;;;3.60;;
2522;SDS011;1272;53.332;9.860;2022-08-01T08:20:15;11.93;;;5.33;;
2522;SDS011;1272;53.332;9.860;2022-08-01T08:22:41;7.47;;;3.57;;
2522;SDS011;1272;53.332;9.860;2022-08-01T08:25:07;10.20;;;3.80;;
2522;SDS011;1272;53.332;9.860;2022-08-01T08:27:34;7.73;;;2.87;;
2522;SDS011;1272;53.332;9.860;2022-08-01T08:30:00;16.17;;;4.50;;
2522;SDS011;1272;53.332;9.860;2022-08-01T08:32:26;7.30;;;3.00;;
2522;SDS011;1272;53.332;9.860;2022-08-01T08:34:52;4.53;;;3.00;;
2522;SDS011;1272;53.332;9.860;2022-08-01T08:37:18;8.50;;;3.37;;
2522;SDS011;1272;53.332;9.860;2022-08-01T08:39:44;4.63;;;2.53;;
2522;SDS011;1272;53.332;9.860;2022-08-01T08:42:10;5.60;;;2.53;;
2522;SDS011;1272;53.332;9.860;2022-08-01T08:44:36;7.13;;;2.60;;
2522;SDS011;1272;53.332;9.860;2022-08-01T08:47:03;4.17;;;2.80;;
2522;SDS011;1272;53.332;9.860;2022-08-01T08:49:32;9.70;;;3.03;;
2522;SDS011;1272;53.332;9.860;2022-08-01T08:51:59;5.27;;;3.13;;
2522;SDS011;1272;53.332;9.860;2022-08-01T08:54:26;8.43;;;2.70;;
2522;SDS011;1272;53.332;9.860;2022-08-01T08:56:53;14.13;;;3.83;;
2522;SDS011;1272;53.332;9.860;2022-08-01T08:59:20;3.37;;;2.90;;
2522;SDS011;1272;53.332;9.860;2022-08-01T09:01:46;11.47;;;4.30;;
2522;SDS011;1272;53.332;9.860;2022-08-01T09:04:13;6.90;;;2.93;;
2522;SDS011;1272;53.332;9.860;2022-08-01T09:06:40;7.13;;;2.50;;
2522;SDS011;1272;53.332;9.860;2022-08-01T09:09:06;8.60;;;3.10;;
2522;SDS011;1272;53.332;9.860;2022-08-01T09:11:33;7.50;;;2.87;;
2522;SDS011;1272;53.332;9.860;2022-08-01T09:14:07;8.13;;;3.13;;
2522;SDS011;1272;53.332;9.860;2022-08-01T09:16:40;6.60;;;2.53;;
2522;SDS011;1272;53.332;9.860;2022-08-01T09:19:11;8.87;;;2.80;;
2522;SDS011;1272;53.332;9.860;2022-08-01T09:21:58;6.70;;;2.30;;
2522;SDS011;1272;53.332;9.860;2022-08-01T09:24:25;4.20;;;2.80;;
2522;SDS011;1272;53.332;9.860;2022-08-01T09:26:54;9.13;;;3.33;;
2522;SDS011;1272;53.332;9.860;2022-08-01T09:29:21;5.70;;;2.87;;
2522;SDS011;1272;53.332;9.860;2022-08-01T09:31:48;7.60;;;2.60;;
2522;SDS011;1272;53.332;9.860;2022-08-01T09:34:24;7.50;;;2.77;;
2522;SDS011;1272;53.332;9.860;2022-08-01T09:39:29;6.77;;;2.93;;
2522;SDS011;1272;53.332;9.860;2022-08-01T09:42:21;4.40;;;2.17;;
2522;SDS011;1272;53.332;9.860;2022-08-01T09:44:48;7.83;;;2.93;;
2522;SDS011;1272;53.332;9.860;2022-08-01T09:47:14;10.80;;;3.47;;
2522;SDS011;1272;53.332;9.860;2022-08-01T09:49:41;10.67;;;2.53;;
2522;SDS011;1272;53.332;9.860;2022-08-01T09:52:18;8.30;;;2.90;;
2522;SDS011;1272;53.332;9.860;2022-08-01T09:54:52;7.90;;;2.87;;
2522;SDS011;1272;53.332;9.860;2022-08-01T09:57:20;13.00;;;2.73;;
2522;SDS011;1272;53.332;9.860;2022-08-01T09:59:47;6.20;;;2.77;;
2522;SDS011;1272;53.332;9.860;2022-08-01T10:02:26;5.37;;;2.47;;
2522;SDS011;1272;53.332;9.860;2022-08-01T10:05:00;10.97;;;2.60;;
2522;SDS011;1272;53.332;9.860;2022-08-01T10:07:27;7.90;;;3.20;;
2522;SDS011;1272;53.332;9.860;2022-08-01T10:09:53;8.57;;;2.67;;
2522;SDS011;1272;53.332;9.860;2022-08-01T10:12:20;8.60;;;3.17;;
2522;SDS011;1272;53.332;9.860;2022-08-01T10:14:47;7.60;;;2.70;;
2522;SDS011;1272;53.332;9.860;2022-08-01T10:17:20;10.17;;;2.60;;
2522;SDS011;1272;53.332;9.860;2022-08-01T10:19:50;5.33;;;2.93;;
2522;SDS011;1272;53.332;9.860;2022-08-01T10:22:19;6.50;;;2.30;;
2522;SDS011;1272;53.332;9.860;2022-08-01T10:24:49;9.70;;;2.67;;
2522;SDS011;1272;53.332;9.860;2022-08-01T10:27:19;7.40;;;2.03;;
2522;SDS011;1272;53.332;9.860;2022-08-01T10:29:57;5.90;;;2.70;;
2522;SDS011;1272;53.332;9.860;2022-08-01T10:32:33;9.60;;;2.60;;
2522;SDS011;1272;53.332;9.860;2022-08-01T10:35:00;6.13;;;2.40;;
2522;SDS011;1272;53.332;9.860;2022-08-01T10:37:28;6.20;;;2.13;;
2522;SDS011;1272;53.332;9.860;2022-08-01T10:39:54;7.40;;;2.43;;
2522;SDS011;1272;53.332;9.860;2022-08-01T10:42:21;6.93;;;2.70;;
2522;SDS011;1272;53.332;9.860;2022-08-01T10:44:47;6.67;;;1.60;;
2522;SDS011;1272;53.332;9.860;2022-08-01T10:47:17;9.47;;;2.60;;
2522;SDS011;1272;53.332;9.860;2022-08-01T10:49:56;4.63;;;2.47;;
2522;SDS011;1272;53.332;9.860;2022-08-01T10:52:24;6.00;;;2.40;;
2522;SDS011;1272;53.332;9.860;2022-08-01T10:54:49;3.83;;;1.73;;
2522;SDS011;1272;53.332;9.860;2022-08-01T11:00:21;2.57;;;1.60;;
2522;SDS011;1272;53.332;9.860;2022-08-01T11:02:57;9.63;;;2.80;;
2522;SDS011;1272;53.332;9.860;2022-08-01T11:05:25;8.17;;;2.20;;
2522;SDS011;1272;53.332;9.860;2022-08-01T11:07:53;9.13;;;2.50;;
2522;SDS011;1272;53.332;9.860;2022-08-01T11:13:06;4.87;;;2.23;;
2522;SDS011;1272;53.332;9.860;2022-08-01T11:15:36;3.00;;;1.47;;
2522;SDS011;1272;53.332;9.860;2022-08-01T11:20:57;7.20;;;2.00;;
2522;SDS011;1272;53.332;9.860;2022-08-01T11:23:25;7.97;;;2.07;;
2522;SDS011;1272;53.332;9.860;2022-08-01T11:28:21;7.07;;;2.07;;
2522;SDS011;1272;53.332;9.860;2022-08-01T11:30:54;6.20;;;2.00;;
2522;SDS011;1272;53.332;9.860;2022-08-01T11:38:35;4.10;;;1.77;;
2522;SDS011;1272;53.332;9.860;2022-08-01T11:41:25;5.30;;;2.23;;
2522;SDS011;1272;53.332;9.860;2022-08-01T11:46:44;6.30;;;2.00;;
2522;SDS011;1272;53.332;9.860;2022-08-01T11:49:53;5.37;;;1.80;;
2522;SDS011;1272;53.332;9.860;2022-08-01T11:52:23;4.53;;;2.07;;
2522;SDS011;1272;53.332;9.860;2022-08-01T11:54:52;6.50;;;1.87;;
2522;SDS011;1272;53.332;9.860;2022-08-01T11:57:20;6.10;;;2.33;;
2522;SDS011;1272;53.332;9.860;2022-08-01T11:59:49;7.50;;;2.00;;
2522;SDS011;1272;53.332;9.860;2022-08-01T12:07:25;5.30;;;1.87;;
2522;SDS011;1272;53.332;9.860;2022-08-01T12:09:58;2.83;;;1.73;;
2522;SDS011;1272;53.332;9.860;2022-08-01T12:12:32;6.03;;;1.70;;
2522;SDS011;1272;53.332;9.860;2022-08-01T12:15:03;4.00;;;1.97;;
2522;SDS011;1272;53.332;9.860;2022-08-01T12:17:35;7.50;;;2.30;;
2522;SDS011;1272;53.332;9.860;2022-08-01T12:20:28;4.40;;;1.60;;
2522;SDS011;1272;53.332;9.860;2022-08-01T12:22:55;5.80;;;1.93;;
2522;SDS011;1272;53.332;9.860;2022-08-01T12:25:23;6.10;;;1.60;;
2522;SDS011;1272;53.332;9.860;2022-08-01T12:27:49;6.20;;;1.77;;
2522;SDS011;1272;53.332;9.860;2022-08-01T12:30:19;5.33;;;1.80;;
2522;SDS011;1272;53.332;9.860;2022-08-01T12:32:50;4.67;;;1.67;;
2522;SDS011;1272;53.332;9.860;2022-08-01T12:35:17;5.10;;;1.50;;
2522;SDS011;1272;53.332;9.860;2022-08-01T12:37:48;3.00;;;2.10;;
2522;SDS011;1272;53.332;9.860;2022-08-01T12:40:17;3.13;;;1.53;;
2522;SDS011;1272;53.332;9.860;2022-08-01T12:42:48;7.57;;;1.60;;
2522;SDS011;1272;53.332;9.860;2022-08-01T12:45:16;4.20;;;1.30;;
2522;SDS011;1272;53.332;9.860;2022-08-01T12:47:44;4.87;;;1.50;;
2522;SDS011;1272;53.332;9.860;2022-08-01T12:50:12;3.60;;;1.50;;
2522;SDS011;1272;53.332;9.860;2022-08-01T12:52:40;2.80;;;1.37;;
2522;SDS011;1272;53.332;9.860;2022-08-01T12:55:14;7.37;;;1.77;;
2522;SDS011;1272;53.332;9.860;2022-08-01T12:57:43;3.50;;;1.20;;
2522;SDS011;1272;53.332;9.860;2022-08-01T13:00:18;4.93;;;1.77;;
2522;SDS011;1272;53.332;9.860;2022-08-01T13:02:50;4.20;;;1.73;;
2522;SDS011;1272;53.332;9.860;2022-08-01T13:08:13;2.37;;;1.30;;
2522;SDS011;1272;53.332;9.860;2022-08-01T13:10:42;3.07;;;1.63;;
2522;SDS011;1272;53.332;9.860;2022-08-01T13:13:09;5.03;;;1.70;;
2522;SDS011;1272;53.332;9.860;2022-08-01T13:15:36;4.00;;;1.63;;
2522;SDS011;1272;53.332;9.860;2022-08-01T13:23:40;3.23;;;1.20;;
2522;SDS011;1272;53.332;9.860;2022-08-01T13:29:12;4.70;;;1.83;;
2522;SDS011;1272;53.332;9.860;2022-08-01T13:31:40;4.93;;;2.33;;
2522;SDS011;1272;53.332;9.860;2022-08-01T13:34:06;5.20;;;1.73;;
2522;SDS011;1272;53.332;9.860;2022-08-01T13:36:32;2.93;;;1.53;;
2522;SDS011;1272;53.332;9.860;2022-08-01T13:38:59;3.60;;;1.70;;
2522;SDS011;1272;53.332;9.860;2022-08-01T13:41:51;3.20;;;1.47;;
2522;SDS011;1272;53.332;9.860;2022-08-01T13:44:17;5.73;;;1.70;;
2522;SDS011;1272;53.332;9.860;2022-08-01T13:46:43;4.20;;;1.33;;
2522;SDS011;1272;53.332;9.860;2022-08-01T13:49:10;2.37;;;1.50;;
2522;SDS011;1272;53.332;9.860;2022-08-01T13:51:36;8.37;;;2.03;;
2522;SDS011;1272;53.332;9.860;2022-08-01T13:54:03;2.50;;;1.47;;
2522;SDS011;1272;53.332;9.860;2022-08-01T13:56:31;4.00;;;1.57;;
2522;SDS011;1272;53.332;9.860;2022-08-01T13:58:57;4.30;;;1.67;;
2522;SDS011;1272;53.332;9.860;2022-08-01T14:01:23;3.30;;;1.83;;
2522;SDS011;1272;53.332;9.860;2022-08-01T14:03:49;6.10;;;1.83;;
2522;SDS011;1272;53.332;9.860;2022-08-01T14:06:18;4.90;;;1.60;;
2522;SDS011;1272;53.332;9.860;2022-08-01T14:08:46;5.07;;;1.90;;
2522;SDS011;1272;53.332;9.860;2022-08-01T14:11:12;3.43;;;1.63;;
2522;SDS011;1272;53.332;9.860;2022-08-01T14:13:37;5.20;;;1.60;;
2522;SDS011;1272;53.332;9.860;2022-08-01T14:16:05;4.80;;;1.90;;
2522;SDS011;1272;53.332;9.860;2022-08-01T14:18:31;3.53;;;1.80;;
2522;SDS011;1272;53.332;9.860;2022-08-01T14:20:57;5.63;;;1.83;;
2522;SDS011;1272;53.332;9.860;2022-08-01T14:23:23;3.40;;;1.80;;
2522;SDS011;1272;53.332;9.860;2022-08-01T14:25:48;5.40;;;1.93;;
2522;SDS011;1272;53.332;9.860;2022-08-01T14:28:14;3.87;;;1.27;;
2522;SDS011;1272;53.332;9.860;2022-08-01T14:30:40;7.33;;;2.30;;
2522;SDS011;1272;53.332;9.860;2022-08-01T14:33:07;6.67;;;1.93;;
2522;SDS011;1272;53.332;9.860;2022-08-01T14:35:33;2.73;;;1.60;;
2522;SDS011;1272;53.332;9.860;2022-08-01T14:37:59;4.10;;;1.30;;
2522;SDS011;1272;53.332;9.860;2022-08-01T14:40:25;2.40;;;1.30;;
2522;SDS011;1272;53.332;9.860;2022-08-01T14:42:51;3.53;;;1.43;;
2522;SDS011;1272;53.332;9.860;2022-08-01T14:45:16;3.87;;;1.70;;
2522;SDS011;1272;53.332;9.860;2022-08-01T14:47:42;3.87;;;1.17;;
2522;SDS011;1272;53.332;9.860;2022-08-01T14:50:09;2.40;;;1.30;;
2522;SDS011;1272;53.332;9.860;2022-08-01T14:52:37;4.90;;;1.43;;
2522;SDS011;1272;53.332;9.860;2022-08-01T14:55:05;3.63;;;1.33;;
2522;SDS011;1272;53.332;9.860;2022-08-01T14:57:31;6.37;;;1.70;;
2522;SDS011;1272;53.332;9.860;2022-08-01T14:59:57;4.13;;;1.60;;
2522;SDS011;1272;53.332;9.860;2022-08-01T15:02:23;3.10;;;1.27;;
2522;SDS011;1272;53.332;9.860;2022-08-01T15:04:49;1.80;;;1.67;;
2522;SDS011;1272;53.332;9.860;2022-08-01T15:07:15;3.70;;;1.67;;
2522;SDS011;1272;53.332;9.860;2022-08-01T15:09:42;10.67;;;2.10;;
2522;SDS011;1272;53.332;9.860;2022-08-01T15:12:08;5.10;;;1.63;;
2522;SDS011;1272;53.332;9.860;2022-08-01T15:14:35;5.20;;;1.97;;
2522;SDS011;1272;53.332;9.860;2022-08-01T15:17:20;2.40;;;1.93;;
2522;SDS011;1272;53.332;9.860;2022-08-01T15:19:48;6.37;;;1.87;;
2522;SDS011;1272;53.332;9.860;2022-08-01T15:22:14;5.73;;;1.80;;
2522;SDS011;1272;53.332;9.860;2022-08-01T15:24:40;6.07;;;1.73;;
2522;SDS011;1272;53.332;9.860;2022-08-01T15:27:07;7.00;;;1.83;;
2522;SDS011;1272;53.332;9.860;2022-08-01T15:29:33;4.87;;;1.70;;
2522;SDS011;1272;53.332;9.860;2022-08-01T15:31:59;4.43;;;1.50;;
2522;SDS011;1272;53.332;9.860;2022-08-01T15:34:29;3.63;;;1.50;;
2522;SDS011;1272;53.332;9.860;2022-08-01T15:36:55;4.47;;;2.20;;
2522;SDS011;1272;53.332;9.860;2022-08-01T15:39:22;4.70;;;1.57;;
2522;SDS011;1272;53.332;9.860;2022-08-01T15:41:47;6.53;;;1.70;;
2522;SDS011;1272;53.332;9.860;2022-08-01T15:44:13;8.17;;;1.83;;
2522;SDS011;1272;53.332;9.860;2022-08-01T15:46:39;3.90;;;1.73;;
2522;SDS011;1272;53.332;9.860;2022-08-01T15:49:05;6.93;;;2.53;;
2522;SDS011;1272;53.332;9.860;2022-08-01T15:51:32;4.93;;;1.67;;
2522;SDS011;1272;53.332;9.860;2022-08-01T15:53:58;3.90;;;1.50;;
2522;SDS011;1272;53.332;9.860;2022-08-01T15:56:28;5.33;;;1.97;;
2522;SDS011;1272;53.332;9.860;2022-08-01T15:58:55;5.03;;;1.63;;
2522;SDS011;1272;53.332;9.860;2022-08-01T16:01:21;4.10;;;1.90;;
2522;SDS011;1272;53.332;9.860;2022-08-01T16:03:46;3.07;;;1.50;;
2522;SDS011;1272;53.332;9.860;2022-08-01T16:06:12;2.80;;;1.80;;
2522;SDS011;1272;53.332;9.860;2022-08-01T16:08:38;3.43;;;1.63;;